Time;durP1;ratioP1;P1;durP2;ratioP2;P2;SDS_P1;SDS_P2;PMS_P1;PMS_P2;Temp;Humidity;BMP_temperature;BMP_pressure;BME280_temperature;BME280_humidity;BME280_pressure;Samples;Min_cycle;Max_cycle;Signal;HPM_P1;HPM_P2
2022/07/01 00:01:40;;;;;;;3.00;0.95;;;15.50;99.90;;;;;;4918068;29;20075;-81
2022/07/01 00:04:05;;;;;;;9.25;1.55;;;15.50;99.90;;;;;;4918249;29;20020;-80
2022/07/01 00:06:31;;;;;;;2.17;1.00;;;15.50;99.90;;;;;;4917757;29;20024;-80
2022/07/01 00:08:57;;;;;;;3.10;1.30;;;15.50;99.90;;;;;;4918297;29;20028;-81
2022/07/01 00:11:23;;;;;;;3.70;0.75;;;15.50;99.90;;;;;;4917561;29;20039;-81
2022/07/01 00:13:49;;;;;;;2.25;0.90;;;15.40;99.90;;;;;;4918553;29;20436;-81
2022/07/01 00:16:14;;;;;;;5.43;1.10;;;15.40;99.90;;;;;;4916934;29;20044;-80
2022/07/01 00:18:40;;;;;;;4.43;1.30;;;15.40;99.90;;;;;;4898769;29;20588;-82
2022/07/01 00:21:06;;;;;;;1.75;0.95;;;15.40;99.90;;;;;;4899214;29;20032;-81
2022/07/01 00:23:32;;;;;;;4.18;1.15;;;15.40;99.90;;;;;;4898845;29;20029;-80
2022/07/01 00:25:57;;;;;;;3.15;1.00;;;15.40;99.90;;;;;;4899111;29;20033;-81
2022/07/01 00:28:23;;;;;;;3.65;1.17;;;15.40;99.90;;;;;;4898862;29;20127;-82
2022/07/01 00:30:49;;;;;;;4.55;1.30;;;15.40;99.90;;;;;;4912091;29;20048;-81
2022/07/01 00:33:14;;;;;;;7.57;1.20;;;15.20;99.90;;;;;;4917837;29;20058;-81
2022/07/01 00:35:40;;;;;;;4.60;1.00;;;15.30;99.90;;;;;;4917724;29;20112;-81
2022/07/01 00:38:06;;;;;;;5.63;1.73;;;15.30;99.90;;;;;;4917839;29;20024;-81
2022/07/01 00:40:32;;;;;;;5.78;1.75;;;15.30;99.90;;;;;;4917085;29;20487;-81
2022/07/01 00:42:57;;;;;;;5.47;1.45;;;15.30;99.90;;;;;;4917631;29;20028;-81
2022/07/01 00:45:23;;;;;;;7.35;1.73;;;15.30;99.90;;;;;;4917416;29;20119;-81
2022/07/01 00:47:50;;;;;;;3.63;1.45;;;15.30;99.90;;;;;;4917409;29;20484;-80
2022/07/01 00:50:16;;;;;;;4.82;1.38;;;15.30;99.90;;;;;;4917665;29;20028;-81
2022/07/01 00:52:44;;;;;;;4.40;1.60;;;15.20;99.90;;;;;;4917243;29;20148;-80
2022/07/01 00:55:12;;;;;;;5.03;1.58;;;15.30;99.90;;;;;;4917202;29;20039;-81
2022/07/01 00:57:40;;;;;;;4.30;1.20;;;15.30;99.90;;;;;;4917566;29;20032;-81
2022/07/01 01:00:07;;;;;;;6.78;1.73;;;15.30;99.90;;;;;;4916955;29;20111;-81
2022/07/01 01:02:33;;;;;;;5.05;1.92;;;15.30;99.90;;;;;;4917211;29;20031;-81
2022/07/01 01:04:59;;;;;;;6.78;1.42;;;15.20;99.90;;;;;;4917185;29;20031;-81
2022/07/01 01:07:26;;;;;;;5.00;1.63;;;15.20;99.90;;;;;;4916529;29;20041;-81
2022/07/01 01:09:52;;;;;;;9.80;1.60;;;15.30;99.90;;;;;;4916397;29;20039;-81
2022/07/01 01:12:17;;;;;;;5.55;1.60;;;15.20;99.90;;;;;;4917100;29;20123;-81
2022/07/01 01:14:44;;;;;;;3.28;1.58;;;15.20;99.90;;;;;;4917365;29;20060;-81
2022/07/01 01:17:10;;;;;;;7.70;1.58;;;15.30;99.90;;;;;;4916702;29;20493;-81
2022/07/01 01:19:36;;;;;;;7.03;1.90;;;15.30;99.90;;;;;;4916631;29;20060;-81
2022/07/01 01:22:02;;;;;;;7.50;2.10;;;15.30;99.90;;;;;;4917011;29;20446;-80
2022/07/01 01:24:27;;;;;;;4.57;1.58;;;15.30;99.90;;;;;;4916615;29;20063;-80
2022/07/01 01:26:53;;;;;;;8.80;2.40;;;15.30;99.90;;;;;;4916492;29;20024;-81
2022/07/01 01:29:18;;;;;;;10.88;2.00;;;15.30;99.90;;;;;;4916955;29;20493;-81
2022/07/01 01:31:44;;;;;;;5.78;1.60;;;15.40;99.90;;;;;;4916552;29;20414;-81
2022/07/01 01:34:10;;;;;;;7.55;2.00;;;15.40;99.90;;;;;;4916630;29;20053;-82
2022/07/01 01:36:36;;;;;;;6.88;1.98;;;15.30;99.90;;;;;;4916419;29;20436;-81
2022/07/01 01:39:20;;;;;;;5.75;1.80;;;15.30;99.90;;;;;;4916582;29;20028;-81
2022/07/01 01:41:46;;;;;;;7.97;1.70;;;15.30;99.90;;;;;;4916301;29;20020;-81
2022/07/01 01:44:12;;;;;;;7.35;1.90;;;15.30;99.90;;;;;;4916687;29;20020;-81
2022/07/01 01:46:38;;;;;;;7.68;2.25;;;15.30;99.90;;;;;;4916380;29;20117;-81
2022/07/01 01:49:06;;;;;;;7.60;1.90;;;15.30;99.90;;;;;;4916593;29;20041;-81
2022/07/01 01:51:31;;;;;;;7.95;2.15;;;15.30;99.90;;;;;;4915598;29;20036;-81
2022/07/01 01:53:57;;;;;;;9.13;1.75;;;15.30;99.90;;;;;;4916358;29;20043;-81
2022/07/01 01:56:24;;;;;;;7.72;1.67;;;15.30;99.90;;;;;;4915952;29;20513;-81
2022/07/01 01:58:50;;;;;;;4.75;1.67;;;15.30;99.90;;;;;;4916283;29;20076;-81
2022/07/01 02:01:16;;;;;;;4.97;2.03;;;15.20;99.90;;;;;;4916244;29;20114;-81
2022/07/01 02:03:43;;;;;;;8.82;1.95;;;15.10;99.90;;;;;;4915644;29;20488;-80
2022/07/01 02:06:11;;;;;;;5.28;1.88;;;15.20;99.90;;;;;;4916041;29;20131;-80
2022/07/01 02:08:38;;;;;;;12.77;2.35;;;15.20;99.90;;;;;;4916371;29;20043;-81
2022/07/01 02:11:04;;;;;;;7.78;2.13;;;15.10;99.90;;;;;;4915281;29;20059;-81
2022/07/01 02:13:30;;;;;;;6.70;2.05;;;15.20;99.90;;;;;;4915890;29;20035;-81
2022/07/01 02:15:56;;;;;;;4.10;2.00;;;15.20;99.90;;;;;;4916337;29;20026;-81
2022/07/01 02:18:22;;;;;;;4.80;1.80;;;15.20;99.90;;;;;;4915434;29;20044;-82
2022/07/01 02:20:48;;;;;;;7.53;2.00;;;15.20;99.90;;;;;;4915779;29;20024;-81
2022/07/01 02:23:14;;;;;;;6.57;1.98;;;15.20;99.90;;;;;;4916032;29;20528;-81
2022/07/01 02:25:41;;;;;;;7.95;1.73;;;15.20;99.90;;;;;;4915355;29;20032;-81
2022/07/01 02:28:08;;;;;;;7.47;2.17;;;15.20;99.90;;;;;;4915900;29;20028;-82
2022/07/01 02:30:36;;;;;;;7.85;2.33;;;15.20;99.90;;;;;;4916263;29;20028;-81
2022/07/01 02:33:05;;;;;;;8.50;2.00;;;15.20;99.90;;;;;;4915864;29;20035;-81
2022/07/01 02:35:32;;;;;;;9.07;1.90;;;15.20;99.90;;;;;;4915630;29;20024;-81
2022/07/01 02:37:57;;;;;;;10.00;1.90;;;15.20;99.90;;;;;;4915694;29;20039;-80
2022/07/01 02:40:23;;;;;;;5.43;1.92;;;15.20;99.90;;;;;;4915497;29;20029;-81
2022/07/01 02:42:49;;;;;;;5.40;1.63;;;15.20;99.90;;;;;;4915561;29;20032;-80
2022/07/01 02:45:14;;;;;;;8.32;1.85;;;15.20;99.90;;;;;;4915824;29;20024;-82
2022/07/01 02:47:41;;;;;;;7.93;2.10;;;15.20;99.90;;;;;;4915154;29;20060;-81
2022/07/01 02:50:11;;;;;;;9.10;2.15;;;15.20;99.90;;;;;;4915720;29;20028;-81
2022/07/01 02:52:38;;;;;;;8.55;1.48;;;15.20;99.90;;;;;;4915512;29;20107;-81
2022/07/01 02:55:06;;;;;;;6.55;2.08;;;15.20;99.90;;;;;;4915664;29;20559;-81
2022/07/01 02:57:32;;;;;;;6.28;2.00;;;15.20;99.90;;;;;;4914508;29;20028;-81
2022/07/01 02:59:58;;;;;;;8.50;1.63;;;15.20;99.90;;;;;;4915845;29;20513;-81
2022/07/01 03:02:24;;;;;;;7.10;2.22;;;15.20;99.90;;;;;;4918092;29;20068;-81
2022/07/01 03:04:51;;;;;;;8.82;1.92;;;15.20;99.90;;;;;;4918786;29;20530;-81
2022/07/01 03:07:18;;;;;;;6.30;1.75;;;15.20;99.90;;;;;;4919443;29;20029;-80
2022/07/01 03:09:44;;;;;;;4.93;1.67;;;15.10;99.90;;;;;;4919048;29;20032;-80
2022/07/01 03:12:27;;;;;;;6.82;1.70;;;15.10;99.90;;;;;;4919224;29;20054;-81
2022/07/01 03:14:57;;;;;;;5.10;1.42;;;15.20;99.90;;;;;;4919227;29;20040;-80
2022/07/01 03:17:23;;;;;;;10.40;1.92;;;15.10;99.90;;;;;;4909465;29;20521;-81
2022/07/01 03:19:51;;;;;;;9.57;1.77;;;15.10;99.90;;;;;;4916158;29;20040;-81
2022/07/01 03:22:17;;;;;;;6.25;1.98;;;15.10;99.90;;;;;;4918838;29;20032;-81
2022/07/01 03:24:43;;;;;;;8.80;1.70;;;15.10;99.90;;;;;;4919212;29;20027;-80
2022/07/01 03:27:08;;;;;;;8.93;2.10;;;15.10;99.90;;;;;;4918836;29;20028;-81
2022/07/01 03:29:34;;;;;;;9.90;1.90;;;15.10;99.90;;;;;;4919200;29;20028;-81
2022/07/01 03:32:00;;;;;;;12.55;1.73;;;15.20;99.90;;;;;;4919118;29;20493;-81
2022/07/01 03:34:26;;;;;;;4.22;1.67;;;15.20;99.90;;;;;;4918846;29;20036;-81
2022/07/01 03:36:51;;;;;;;5.63;1.65;;;15.20;99.90;;;;;;4918318;29;20117;-81
2022/07/01 03:39:17;;;;;;;6.90;1.48;;;15.20;99.90;;;;;;4919152;29;20084;-82
2022/07/01 03:41:44;;;;;;;9.30;2.05;;;15.10;99.90;;;;;;4918445;29;20024;-80
2022/07/01 03:44:09;;;;;;;5.93;1.85;;;15.10;99.90;;;;;;4918615;29;20032;-81
2022/07/01 03:46:35;;;;;;;9.63;1.75;;;15.10;99.90;;;;;;4918544;29;20033;-81
2022/07/01 03:49:02;;;;;;;7.78;2.47;;;15.10;99.90;;;;;;4918083;29;20035;-81
2022/07/01 03:51:28;;;;;;;6.10;1.63;;;15.10;99.90;;;;;;4919074;29;20389;-81
2022/07/01 03:56:38;;;;;;;6.95;1.90;;;15.00;99.90;;;;;;4917644;29;20043;-81
2022/07/01 03:59:03;;;;;;;9.13;2.28;;;15.00;99.90;;;;;;4918262;29;20392;-80
2022/07/01 04:01:29;;;;;;;6.30;1.65;;;15.00;99.90;;;;;;4918693;29;20072;-80
2022/07/01 04:03:56;;;;;;;7.32;1.92;;;15.00;99.90;;;;;;4916679;29;20044;-81
2022/07/01 04:06:22;;;;;;;8.98;1.83;;;15.00;99.90;;;;;;4917656;29;20040;-81
2022/07/01 04:08:48;;;;;;;13.50;2.40;;;14.90;99.90;;;;;;4918180;29;20047;-81
2022/07/01 04:11:15;;;;;;;9.73;1.90;;;14.90;99.90;;;;;;4918335;29;20491;-81
2022/07/01 04:13:40;;;;;;;6.07;1.65;;;14.90;99.90;;;;;;4917491;29;20016;-81
2022/07/01 04:16:06;;;;;;;8.85;1.40;;;14.90;99.90;;;;;;4918435;29;20508;-81
2022/07/01 04:18:33;;;;;;;5.43;1.50;;;14.80;99.90;;;;;;4917425;29;20389;-81
2022/07/01 04:23:43;;;;;;;7.32;1.80;;;14.80;99.90;;;;;;4917890;29;20388;-80
2022/07/01 04:26:09;;;;;;;4.65;1.83;;;14.70;99.90;;;;;;4917993;29;20048;-80
2022/07/01 04:28:35;;;;;;;6.43;1.83;;;14.70;99.90;;;;;;4918445;29;20083;-78
2022/07/01 04:31:01;;;;;;;7.13;2.10;;;14.70;99.90;;;;;;4916964;29;20050;-79
2022/07/01 04:33:26;;;;;;;7.25;1.63;;;14.70;99.90;;;;;;4918699;29;20080;-79
2022/07/01 04:35:52;;;;;;;9.95;1.95;;;14.70;99.90;;;;;;4917487;29;20474;-78
2022/07/01 04:38:18;;;;;;;8.30;1.70;;;14.70;99.90;;;;;;4918648;29;20097;-80
2022/07/01 04:41:58;;;;;;;6.45;1.75;;;14.60;99.90;;;;;;4918100;29;20028;-79
2022/07/01 04:43:29;;;;;;;8.95;1.73;;;14.70;99.90;;;;;;4917706;29;20024;-79
2022/07/01 04:45:55;;;;;;;5.68;2.13;;;14.70;99.90;;;;;;4915325;29;20036;-80
2022/07/01 04:48:21;;;;;;;6.32;1.98;;;14.70;99.90;;;;;;4916905;29;20034;-79
2022/07/01 04:50:46;;;;;;;8.50;2.33;;;14.70;99.90;;;;;;4917595;29;20469;-80
2022/07/01 04:53:15;;;;;;;9.80;1.95;;;14.80;99.90;;;;;;4917409;29;20047;-79
2022/07/01 04:55:41;;;;;;;7.45;1.92;;;14.70;99.90;;;;;;4917173;29;20035;-79
2022/07/01 04:58:06;;;;;;;7.70;2.10;;;14.80;99.90;;;;;;4917817;29;20032;-79
2022/07/01 05:00:32;;;;;;;6.80;2.80;;;14.80;99.90;;;;;;4916980;29;20028;-80
2022/07/01 05:02:58;;;;;;;6.53;2.53;;;14.70;99.90;;;;;;4916852;29;20035;-79
2022/07/01 05:05:23;;;;;;;6.68;2.72;;;14.80;99.90;;;;;;4917525;29;20028;-80
2022/07/01 05:07:49;;;;;;;15.27;2.83;;;14.80;99.90;;;;;;4917189;29;20547;-79
2022/07/01 05:10:15;;;;;;;10.68;3.17;;;14.80;99.90;;;;;;4917086;29;20476;-79
2022/07/01 05:12:41;;;;;;;9.95;3.53;;;14.90;99.90;;;;;;4915956;29;20377;-79
2022/07/01 05:15:08;;;;;;;7.53;2.95;;;14.90;99.90;;;;;;4916030;29;20115;-79
2022/07/01 05:23:02;;;;;;;11.25;3.22;;;14.90;99.90;;;;;;4908527;29;20035;-80
2022/07/01 05:25:28;;;;;;;9.82;2.97;;;14.90;99.90;;;;;;4915111;29;20024;-79
2022/07/01 05:27:54;;;;;;;11.55;3.70;;;14.90;99.90;;;;;;4916013;29;20028;-80
2022/07/01 05:30:21;;;;;;;11.35;3.42;;;15.00;99.90;;;;;;4916192;29;20024;-80
2022/07/01 05:32:47;;;;;;;11.82;3.78;;;14.90;99.90;;;;;;4914648;29;20489;-80
2022/07/01 05:35:14;;;;;;;8.05;3.35;;;14.90;99.90;;;;;;4916258;29;20071;-81
2022/07/01 05:37:40;;;;;;;14.25;3.75;;;15.00;99.90;;;;;;4915974;29;20017;-80
2022/07/01 05:40:06;;;;;;;9.00;2.90;;;15.00;99.90;;;;;;4915142;29;20078;-80
2022/07/01 05:42:32;;;;;;;10.75;3.35;;;15.00;99.90;;;;;;4917005;29;20028;-80
2022/07/01 05:44:58;;;;;;;9.52;3.58;;;15.00;99.90;;;;;;4916830;29;20091;-79
2022/07/01 05:47:23;;;;;;;11.43;3.20;;;15.00;99.90;;;;;;4917505;29;20479;-80
2022/07/01 05:49:49;;;;;;;9.20;3.45;;;15.10;99.90;;;;;;4916782;29;20509;-80
2022/07/01 05:52:15;;;;;;;10.52;3.40;;;15.10;99.90;;;;;;4915638;29;20036;-80
2022/07/01 05:54:40;;;;;;;11.35;2.90;;;15.10;99.90;;;;;;4906718;29;20091;-80
2022/07/01 05:57:06;;;;;;;11.07;4.43;;;15.10;99.90;;;;;;4910041;29;20060;-80
2022/07/01 05:59:31;;;;;;;10.48;3.50;;;15.10;99.90;;;;;;4916632;29;20094;-80
2022/07/01 06:01:57;;;;;;;14.75;3.90;;;15.10;99.90;;;;;;4915865;29;20027;-80
2022/07/01 06:04:23;;;;;;;11.43;2.75;;;15.20;99.90;;;;;;4916933;29;20063;-80
2022/07/01 06:06:48;;;;;;;8.02;2.90;;;15.20;99.90;;;;;;4916815;29;20040;-80
2022/07/01 06:09:14;;;;;;;9.45;3.17;;;15.30;99.90;;;;;;4916452;29;20074;-79
2022/07/01 06:11:40;;;;;;;11.32;2.50;;;15.40;99.90;;;;;;4916863;29;20032;-79
2022/07/01 06:14:05;;;;;;;13.90;2.75;;;15.40;99.90;;;;;;4916445;29;20040;-79
2022/07/01 06:16:31;;;;;;;12.25;2.38;;;15.60;99.90;;;;;;4915645;29;20519;-77
2022/07/01 06:18:56;;;;;;;7.43;2.25;;;15.70;99.90;;;;;;4915695;29;20377;-77
2022/07/01 06:21:22;;;;;;;8.90;2.40;;;15.80;99.90;;;;;;4915505;29;20495;-78
2022/07/01 06:23:48;;;;;;;7.90;2.67;;;15.70;99.90;;;;;;4916055;29;20025;-77
2022/07/01 06:26:14;;;;;;;10.75;2.92;;;15.80;99.90;;;;;;4904359;29;20477;-78
2022/07/01 13:12:44;;;;;;;1.70;0.85;;;25.30;65.60;;;;;;4895225;29;20117;-75
2022/07/01 13:15:10;;;;;;;4.65;1.08;;;24.90;65.30;;;;;;4893332;29;20473;-76
2022/07/01 13:17:36;;;;;;;4.63;1.45;;;24.20;65.40;;;;;;4896583;29;20048;-75
2022/07/01 13:20:02;;;;;;;5.25;0.98;;;24.20;67.00;;;;;;4897597;29;20070;-75
2022/07/01 13:22:28;;;;;;;2.58;1.08;;;24.90;63.50;;;;;;4898048;29;20021;-75
2022/07/01 13:24:54;;;;;;;6.78;1.20;;;25.40;62.20;;;;;;4896647;29;20428;-75
2022/07/01 13:27:20;;;;;;;2.70;0.82;;;25.70;64.50;;;;;;4897487;29;20031;-75
2022/07/01 13:29:46;;;;;;;3.15;0.98;;;25.30;62.40;;;;;;4896893;29;20492;-75
2022/07/01 13:32:11;;;;;;;3.63;0.82;;;25.00;65.10;;;;;;4897738;29;20044;-75
2022/07/01 13:34:37;;;;;;;3.15;1.00;;;24.40;66.00;;;;;;4897464;29;20044;-75
2022/07/01 13:37:03;;;;;;;4.60;1.20;;;24.20;66.10;;;;;;4896532;29;20496;-74
2022/07/01 13:39:29;;;;;;;3.22;1.20;;;24.40;66.00;;;;;;4897457;29;20033;-75
2022/07/01 13:41:56;;;;;;;3.95;0.90;;;24.60;66.90;;;;;;4896360;29;20024;-75
2022/07/01 13:44:23;;;;;;;2.88;1.02;;;24.20;66.30;;;;;;4897175;29;20398;-75
2022/07/01 13:46:48;;;;;;;1.17;0.52;;;23.70;66.10;;;;;;4896720;29;20084;-76
2022/07/01 13:49:15;;;;;;;4.00;1.00;;;24.00;64.50;;;;;;4897418;29;20493;-75
2022/07/01 13:51:41;;;;;;;5.63;1.00;;;24.10;67.20;;;;;;4897001;29;20029;-75
2022/07/01 13:54:07;;;;;;;3.80;0.73;;;24.50;65.20;;;;;;4896680;29;20059;-75
2022/07/01 13:56:32;;;;;;;3.00;1.02;;;24.80;63.80;;;;;;4896862;29;20056;-75
2022/07/01 13:58:58;;;;;;;3.55;1.25;;;24.90;61.80;;;;;;4896677;29;20043;-75
2022/07/01 14:01:24;;;;;;;2.13;0.80;;;24.90;63.00;;;;;;4896160;29;20080;-75
2022/07/01 14:03:51;;;;;;;4.00;1.05;;;25.20;63.50;;;;;;4896342;29;20029;-75
2022/07/01 14:06:18;;;;;;;4.57;1.20;;;25.10;64.50;;;;;;4896963;29;20021;-76
2022/07/01 14:08:44;;;;;;;7.68;1.00;;;25.00;64.30;;;;;;4897110;29;20048;-75
2022/07/01 14:11:10;;;;;;;2.13;0.80;;;24.80;63.10;;;;;;4895974;29;20444;-75
2022/07/01 14:13:35;;;;;;;12.13;1.42;;;24.70;63.00;;;;;;4896989;29;20029;-75
2022/07/01 14:16:02;;;;;;;5.45;1.30;;;24.70;63.80;;;;;;4896076;29;20524;-74
2022/07/01 14:18:27;;;;;;;3.30;0.90;;;24.70;64.50;;;;;;4896795;29;20480;-75
2022/07/01 14:20:53;;;;;;;4.03;1.00;;;24.70;62.60;;;;;;4896581;29;20033;-75
2022/07/01 14:23:19;;;;;;;5.20;1.00;;;24.30;62.30;;;;;;4896624;29;20094;-75
2022/07/01 14:25:45;;;;;;;3.55;0.90;;;24.60;62.40;;;;;;4896087;29;20025;-74
2022/07/01 14:28:11;;;;;;;3.80;0.95;;;24.70;61.70;;;;;;4896196;29;20037;-74
2022/07/01 14:30:38;;;;;;;2.45;0.77;;;24.90;61.40;;;;;;4896875;29;20037;-75
2022/07/01 14:33:03;;;;;;;4.75;1.00;;;25.00;61.30;;;;;;4896367;29;20085;-75
2022/07/01 14:35:29;;;;;;;3.88;0.93;;;24.80;61.40;;;;;;4896537;29;20068;-75
2022/07/01 14:37:55;;;;;;;2.90;1.00;;;24.90;63.00;;;;;;4896074;29;20040;-75
2022/07/01 14:40:21;;;;;;;4.68;1.00;;;25.20;62.90;;;;;;4896020;29;20029;-75
2022/07/01 14:42:47;;;;;;;4.97;1.35;;;24.70;62.20;;;;;;4896826;29;20035;-75
2022/07/01 14:45:13;;;;;;;5.28;1.10;;;25.10;62.00;;;;;;4896210;29;20541;-75
2022/07/01 14:47:40;;;;;;;3.03;0.90;;;24.90;61.80;;;;;;4895712;29;20107;-75
2022/07/01 14:50:06;;;;;;;2.13;0.82;;;24.90;61.70;;;;;;4895998;29;20389;-75
2022/07/01 14:52:32;;;;;;;4.10;0.90;;;24.90;60.60;;;;;;4896328;29;20029;-75
2022/07/01 14:54:58;;;;;;;5.28;0.98;;;24.60;60.80;;;;;;4895922;29;20029;-75
2022/07/01 14:57:24;;;;;;;4.03;1.08;;;24.70;60.30;;;;;;4897222;29;20556;-75
2022/07/01 14:59:50;;;;;;;3.22;1.00;;;24.90;60.40;;;;;;4899941;29;20416;-75
2022/07/01 15:02:15;;;;;;;3.97;1.20;;;24.90;59.50;;;;;;4900341;29;20009;-75
2022/07/01 15:04:41;;;;;;;5.28;0.90;;;24.80;61.10;;;;;;4900328;29;20067;-75
2022/07/01 15:07:07;;;;;;;3.97;0.80;;;24.90;59.00;;;;;;4899764;29;20028;-75
2022/07/01 15:09:33;;;;;;;3.72;0.90;;;24.90;60.00;;;;;;4898470;29;20029;-76
2022/07/01 15:11:58;;;;;;;1.55;0.50;;;25.00;59.30;;;;;;4897867;29;20044;-74
2022/07/01 15:14:24;;;;;;;3.00;0.82;;;24.70;59.90;;;;;;4899942;29;20082;-75
2022/07/01 15:16:50;;;;;;;0.85;0.60;;;24.80;59.10;;;;;;4900297;29;20036;-75
2022/07/01 15:19:16;;;;;;;4.60;1.00;;;24.80;58.90;;;;;;4900047;29;20037;-75
2022/07/01 15:21:42;;;;;;;5.18;0.77;;;24.80;59.60;;;;;;4899840;29;20385;-75
2022/07/01 15:24:08;;;;;;;5.65;1.08;;;24.60;59.10;;;;;;4898878;29;20039;-74
2022/07/01 15:26:33;;;;;;;3.53;0.90;;;24.70;59.30;;;;;;4899706;29;20032;-74
2022/07/01 15:28:59;;;;;;;5.18;1.30;;;24.80;59.80;;;;;;4898980;29;20017;-73
2022/07/01 15:31:25;;;;;;;2.83;0.63;;;25.00;59.40;;;;;;4907544;29;20032;-74
2022/07/01 15:33:53;;;;;;;4.90;0.75;;;24.90;58.40;;;;;;4900237;29;20084;-73
2022/07/01 15:36:19;;;;;;;1.02;0.70;;;24.90;58.50;;;;;;4899969;29;20051;-73
2022/07/01 15:38:45;;;;;;;2.42;0.82;;;25.00;58.80;;;;;;4903815;29;20480;-73
2022/07/01 15:41:11;;;;;;;2.08;0.60;;;24.90;58.10;;;;;;4902580;29;20420;-73
2022/07/01 15:43:37;;;;;;;1.10;0.52;;;24.70;57.80;;;;;;4903709;29;20029;-72
2022/07/01 15:46:05;;;;;;;1.48;0.63;;;24.80;58.50;;;;;;4899636;29;20111;-72
2022/07/01 15:48:30;;;;;;;3.53;0.90;;;25.00;58.80;;;;;;4900205;29;20093;-73
2022/07/01 15:50:56;;;;;;;2.17;0.80;;;25.00;57.90;;;;;;4904980;29;20028;-73
2022/07/01 15:53:22;;;;;;;2.58;0.95;;;24.90;57.60;;;;;;4907246;29;20033;-72
2022/07/01 15:55:48;;;;;;;6.38;0.90;;;24.90;57.50;;;;;;4900408;29;20028;-72
2022/07/01 15:58:17;;;;;;;4.40;1.27;;;25.00;57.20;;;;;;4899161;29;20024;-72
2022/07/01 16:00:45;;;;;;;3.22;1.00;;;25.20;58.20;;;;;;4907857;29;20029;-73
2022/07/01 16:03:12;;;;;;;3.22;0.90;;;25.00;57.30;;;;;;4899579;29;20384;-75
2022/07/01 16:05:39;;;;;;;2.35;0.88;;;24.70;58.20;;;;;;4899741;29;20477;-75
2022/07/01 16:08:07;;;;;;;5.43;1.02;;;24.80;57.80;;;;;;4898849;29;20105;-75
2022/07/01 16:10:46;;;;;;;1.90;0.70;;;24.80;57.40;;;;;;4898580;29;20024;-75
2022/07/01 16:13:14;;;;;;;4.57;0.80;;;24.70;57.80;;;;;;4898216;29;20755;-75
2022/07/01 16:15:43;;;;;;;3.03;0.90;;;24.80;57.10;;;;;;4899944;29;20119;-75
2022/07/01 16:18:10;;;;;;;2.00;0.70;;;24.70;56.60;;;;;;4908765;29;20025;-75
2022/07/01 16:20:48;;;;;;;2.90;0.90;;;24.50;57.50;;;;;;4902716;29;20036;-74
2022/07/01 16:23:25;;;;;;;1.52;0.52;;;24.50;57.20;;;;;;4899471;29;20021;-75
2022/07/01 16:25:53;;;;;;;3.72;0.70;;;24.70;57.40;;;;;;4903720;29;20033;-75
2022/07/01 16:28:19;;;;;;;1.10;0.60;;;24.80;56.20;;;;;;4899011;29;20021;-75
2022/07/01 16:30:46;;;;;;;1.85;0.73;;;24.50;57.00;;;;;;4902150;29;20032;-75
2022/07/01 16:33:12;;;;;;;6.43;1.00;;;24.60;56.70;;;;;;4899242;29;20060;-75
2022/07/01 16:35:49;;;;;;;3.63;0.90;;;24.60;55.70;;;;;;4899543;29;20523;-75
2022/07/01 16:38:30;;;;;;;2.50;1.00;;;24.50;55.50;;;;;;4898107;29;20024;-75
2022/07/01 16:41:22;;;;;;;6.55;1.15;;;24.60;56.40;;;;;;4898976;29;20112;-75
2022/07/01 16:43:52;;;;;;;3.53;0.90;;;24.50;56.80;;;;;;4893462;29;20020;-74
2022/07/01 16:46:21;;;;;;;2.33;0.82;;;24.50;57.70;;;;;;4898553;29;20039;-75
2022/07/01 16:48:50;;;;;;;5.95;0.82;;;24.50;57.40;;;;;;4903795;29;20381;-75
2022/07/01 16:51:17;;;;;;;3.88;0.70;;;24.50;56.90;;;;;;4897993;29;20064;-75
2022/07/01 16:53:44;;;;;;;1.15;0.63;;;24.60;58.30;;;;;;4897118;29;20430;-75
2022/07/01 16:56:18;;;;;;;2.22;0.85;;;24.40;56.90;;;;;;4909672;29;20397;-75
2022/07/01 16:58:52;;;;;;;3.53;1.00;;;24.40;58.60;;;;;;4904207;29;20013;-74
2022/07/01 17:01:18;;;;;;;3.47;0.82;;;24.40;58.20;;;;;;4897182;29;20080;-75
2022/07/01 17:03:43;;;;;;;4.40;0.80;;;24.40;58.30;;;;;;4898102;29;20388;-75
2022/07/01 17:06:09;;;;;;;2.05;0.63;;;24.40;57.80;;;;;;4897890;29;20493;-75
2022/07/01 17:08:38;;;;;;;2.83;0.80;;;24.40;58.50;;;;;;4906747;29;20119;-77
2022/07/01 17:11:06;;;;;;;2.72;0.93;;;24.40;58.40;;;;;;4902092;29;20052;-75
2022/07/01 17:13:34;;;;;;;2.55;1.02;;;24.50;58.40;;;;;;4898737;29;20082;-75
2022/07/01 17:16:00;;;;;;;2.55;0.80;;;24.10;58.20;;;;;;4901095;29;20112;-75
2022/07/01 17:18:26;;;;;;;2.80;1.02;;;24.20;58.90;;;;;;4898237;29;20161;-75
2022/07/01 17:20:53;;;;;;;3.33;0.93;;;24.00;58.90;;;;;;4898799;29;20539;-75
2022/07/01 17:23:28;;;;;;;2.55;0.70;;;24.10;58.50;;;;;;4900086;29;20129;-75
2022/07/01 17:25:59;;;;;;;4.47;1.33;;;24.10;59.00;;;;;;4898250;29;20119;-75
2022/07/01 17:28:34;;;;;;;1.30;0.60;;;24.00;57.40;;;;;;4899264;29;20027;-75
2022/07/01 17:31:38;;;;;;;1.80;0.80;;;24.10;59.30;;;;;;4902845;29;20152;-75
2022/07/01 17:34:04;;;;;;;3.08;0.98;;;24.10;59.30;;;;;;4893437;29;20136;-81
2022/07/01 17:36:32;;;;;;;4.28;1.23;;;24.00;59.60;;;;;;4894434;29;20124;-75
2022/07/01 17:39:07;;;;;;;1.58;0.75;;;24.00;58.90;;;;;;4890954;29;20536;-75
2022/07/01 17:41:36;;;;;;;1.95;0.73;;;23.90;59.20;;;;;;4890591;29;20410;-75
2022/07/01 17:44:05;;;;;;;4.40;0.88;;;23.90;58.90;;;;;;4897525;29;20097;-75
2022/07/01 17:46:33;;;;;;;4.30;1.10;;;23.80;59.40;;;;;;4896129;29;20032;-75
2022/07/01 17:49:03;;;;;;;5.05;1.30;;;23.90;60.50;;;;;;4897584;29;20100;-75
2022/07/01 17:51:30;;;;;;;3.97;1.00;;;23.90;61.40;;;;;;4895950;29;20070;-75
2022/07/01 17:53:57;;;;;;;2.28;0.93;;;23.90;60.80;;;;;;4896890;29;20080;-75
2022/07/01 17:56:23;;;;;;;3.63;1.10;;;23.80;61.50;;;;;;4896752;29;20024;-75
2022/07/01 17:58:51;;;;;;;1.98;0.70;;;23.80;62.20;;;;;;4899408;29;20052;-75
2022/07/01 18:01:19;;;;;;;3.00;1.13;;;23.80;60.30;;;;;;4895348;29;20181;-75
2022/07/01 18:03:45;;;;;;;4.00;1.15;;;23.90;60.90;;;;;;4887858;29;20520;-75
2022/07/01 18:06:11;;;;;;;4.10;1.10;;;23.70;61.30;;;;;;4901315;29;20409;-75
2022/07/01 18:08:37;;;;;;;2.58;0.90;;;23.80;61.20;;;;;;4895013;29;20025;-75
2022/07/01 18:11:07;;;;;;;2.75;1.17;;;23.70;60.60;;;;;;4895288;29;20112;-75
2022/07/01 18:13:40;;;;;;;2.72;0.93;;;23.70;60.80;;;;;;4896254;29;20052;-75
2022/07/01 18:16:12;;;;;;;4.35;1.05;;;23.70;61.70;;;;;;4891555;29;20013;-75
2022/07/01 18:18:45;;;;;;;2.33;0.80;;;23.60;62.10;;;;;;4895142;29;20031;-75
2022/07/01 18:21:15;;;;;;;3.00;1.02;;;23.50;61.60;;;;;;4895750;29;20115;-75
2022/07/01 18:23:48;;;;;;;2.75;0.70;;;23.50;63.30;;;;;;4890561;29;20025;-76
2022/07/01 18:26:15;;;;;;;3.30;0.77;;;23.50;63.20;;;;;;4898273;29;20025;-76
2022/07/01 18:28:43;;;;;;;2.63;0.77;;;23.50;62.90;;;;;;4895972;29;20489;-75
2022/07/01 18:31:17;;;;;;;5.82;1.27;;;23.40;63.50;;;;;;4895755;29;20022;-75
2022/07/01 18:34:13;;;;;;;4.25;1.10;;;23.40;63.00;;;;;;4892417;29;20028;-75
2022/07/01 18:36:58;;;;;;;1.35;0.90;;;23.40;62.90;;;;;;4895293;29;20028;-76
2022/07/01 18:39:25;;;;;;;5.97;1.17;;;23.20;62.90;;;;;;4895573;29;20521;-75
2022/07/01 18:41:51;;;;;;;4.63;1.10;;;23.20;63.30;;;;;;4895534;29;20402;-76
2022/07/01 18:44:16;;;;;;;5.38;1.60;;;23.10;63.40;;;;;;4895298;29;20028;-78
2022/07/01 18:46:42;;;;;;;5.05;1.83;;;23.10;62.90;;;;;;4894984;29;20187;-75
2022/07/01 18:49:09;;;;;;;4.15;2.03;;;22.80;63.90;;;;;;4895800;29;20043;-74
2022/07/01 18:51:34;;;;;;;5.32;1.10;;;22.80;64.70;;;;;;4895837;29;20050;-75
2022/07/01 18:54:00;;;;;;;5.97;1.92;;;22.70;65.00;;;;;;4895689;29;20070;-74
2022/07/01 18:56:26;;;;;;;5.90;1.48;;;22.70;65.50;;;;;;4894055;29;20099;-75
2022/07/01 18:58:51;;;;;;;4.05;0.88;;;22.60;65.50;;;;;;4897138;29;20033;-75
2022/07/01 19:01:17;;;;;;;2.38;1.10;;;22.50;65.10;;;;;;4894234;29;20024;-75
2022/07/01 19:03:43;;;;;;;2.70;1.15;;;22.40;65.10;;;;;;4893687;29;20024;-75
2022/07/01 19:06:08;;;;;;;6.18;1.55;;;22.40;65.40;;;;;;4894255;29;20092;-76
2022/07/01 19:08:36;;;;;;;2.90;1.40;;;22.30;65.60;;;;;;4895167;29;20120;-74
2022/07/01 19:11:02;;;;;;;2.25;1.25;;;22.30;68.90;;;;;;4892920;29;20103;-75
2022/07/01 19:13:28;;;;;;;3.92;1.70;;;22.20;66.90;;;;;;4894205;29;20048;-75
2022/07/01 19:15:54;;;;;;;6.70;1.20;;;22.20;69.70;;;;;;4893791;29;20489;-75
2022/07/01 19:18:20;;;;;;;2.92;0.93;;;22.10;70.20;;;;;;4893947;29;20029;-75
2022/07/01 19:20:46;;;;;;;10.75;1.38;;;21.90;70.60;;;;;;4893196;29;20025;-75
2022/07/01 19:23:11;;;;;;;11.70;4.57;;;21.80;72.40;;;;;;4892825;29;20111;-75
2022/07/01 19:25:39;;;;;;;7.30;2.45;;;21.80;72.90;;;;;;4900442;29;20392;-75
2022/07/01 19:28:05;;;;;;;4.43;0.85;;;21.70;74.10;;;;;;4894044;29;20028;-75
2022/07/01 19:30:31;;;;;;;7.60;2.38;;;21.50;73.20;;;;;;4894487;29;20032;-74
2022/07/01 19:32:57;;;;;;;12.55;3.50;;;21.40;75.10;;;;;;4894996;29;20033;-75
2022/07/01 19:35:23;;;;;;;13.30;2.55;;;21.40;76.50;;;;;;4893827;29;20552;-75
2022/07/01 19:37:50;;;;;;;4.88;1.70;;;21.20;77.00;;;;;;4895963;29;20044;-75
2022/07/01 19:40:16;;;;;;;6.88;1.52;;;21.10;77.00;;;;;;4892847;29;20099;-75